createdAt,value
2023-04-18T00:02:29.053Z,8.63
2023-04-18T00:07:33.637Z,8.73
2023-04-18T00:12:36.408Z,8.80
2023-04-18T00:17:41.025Z,9.37
2023-04-18T00:22:45.364Z,7.73
2023-04-18T00:27:46.950Z,8.03
2023-04-18T00:32:48.563Z,8.10
2023-04-18T00:37:50.205Z,8.83
2023-04-18T00:42:51.826Z,8.30
2023-04-18T00:47:56.391Z,8.13
2023-04-18T00:53:00.544Z,8.73
2023-04-18T00:58:02.410Z,8.77
2023-04-18T01:03:08.438Z,8.60
2023-04-18T01:08:10.686Z,8.47
2023-04-18T01:13:16.571Z,8.87
2023-04-18T01:18:20.902Z,8.70
2023-04-18T01:23:22.526Z,8.33
2023-04-18T01:28:24.518Z,7.73
2023-04-18T01:33:26.186Z,9.23
2023-04-18T01:38:30.994Z,8.50
2023-04-18T01:43:32.726Z,9.37
2023-04-18T01:48:36.830Z,7.87
2023-04-18T01:53:38.402Z,8.70
2023-04-18T01:58:41.644Z,9.17
2023-04-18T02:03:43.610Z,9.23
2023-04-18T02:08:45.426Z,9.03
2023-04-18T02:13:47.237Z,8.30
2023-04-18T02:18:49.730Z,8.63
2023-04-18T02:23:51.674Z,9.60
2023-04-18T02:28:53.374Z,8.60
2023-04-18T02:33:55.093Z,9.43
2023-04-18T02:38:57.118Z,8.93
2023-04-18T02:44:01.877Z,9.37
2023-04-18T02:49:03.659Z,9.23
2023-04-18T02:54:05.480Z,9.40
2023-04-18T02:59:09.550Z,9.40
2023-04-18T03:04:11.539Z,9.03
2023-04-18T03:09:16.336Z,8.23
2023-04-18T03:14:20.574Z,8.67
2023-04-18T03:19:22.176Z,9.13
2023-04-18T03:24:23.755Z,8.90
2023-04-18T03:29:26.368Z,8.93
2023-04-18T03:34:30.504Z,9.20
2023-04-18T03:39:32.104Z,9.57
2023-04-18T03:44:34.083Z,9.27
2023-04-18T03:49:35.683Z,9.10
2023-04-18T03:54:39.646Z,9.20
2023-04-18T03:59:41.829Z,9.40
2023-04-18T04:04:47.053Z,10.37
2023-04-18T04:09:48.720Z,8.83
2023-04-18T04:14:51.663Z,9.53
2023-04-18T04:19:53.393Z,8.93
2023-04-18T04:24:58.910Z,8.90
2023-04-18T04:30:00.919Z,9.50
2023-04-18T04:35:05.218Z,8.93
2023-04-18T04:40:10.550Z,9.87
2023-04-18T04:45:12.511Z,9.20
2023-04-18T04:50:15.777Z,9.00
2023-04-18T04:55:18.930Z,8.50
2023-04-18T05:00:21.570Z,9.40
2023-04-18T05:05:33.016Z,9.10
2023-04-18T05:10:37.117Z,8.73
2023-04-18T05:15:39.889Z,8.70
2023-04-18T05:20:41.520Z,8.90
2023-04-18T05:25:43.222Z,8.53
2023-04-18T05:30:45.179Z,8.50
2023-04-18T05:35:49.131Z,8.70
2023-04-18T05:40:55.586Z,9.00
2023-04-18T05:45:59.718Z,8.17
2023-04-18T05:51:04.677Z,9.10
2023-04-18T05:56:06.869Z,9.17
2023-04-18T06:01:08.927Z,8.90
2023-04-18T06:06:14.616Z,9.57
2023-04-18T06:11:16.405Z,8.93
2023-04-18T06:16:18.349Z,8.60
2023-04-18T06:21:21.319Z,8.97
2023-04-18T06:26:23.029Z,9.27
2023-04-18T06:31:26.732Z,8.97
2023-04-18T06:36:32.701Z,9.17
2023-04-18T06:41:35.768Z,9.50
2023-04-18T06:46:37.486Z,9.30
2023-04-18T06:51:39.135Z,9.27
2023-04-18T06:56:41.242Z,9.60
2023-04-18T07:01:44.209Z,9.50
2023-04-18T07:06:46.826Z,8.23
2023-04-18T07:11:52.555Z,9.07
2023-04-18T07:16:57.777Z,9.20
2023-04-18T07:22:01.382Z,9.67
2023-04-18T07:27:03.438Z,9.27
2023-04-18T07:32:07.509Z,9.87
2023-04-18T07:37:10.116Z,9.67
2023-04-18T07:42:11.795Z,9.37
2023-04-18T07:47:15.109Z,9.47
2023-04-18T07:52:16.810Z,12.37
2023-04-18T07:57:21.923Z,9.73
2023-04-18T08:02:23.731Z,9.30
2023-04-18T08:07:40.875Z,10.37
2023-04-18T08:12:42.565Z,9.40
2023-04-18T08:17:47.449Z,10.37
2023-04-18T08:23:05.146Z,10.13
2023-04-18T08:28:11.986Z,10.93
2023-04-18T08:33:13.828Z,9.83
2023-04-18T08:38:20.510Z,10.07
2023-04-18T08:43:29.669Z,10.43
2023-04-18T08:48:31.537Z,9.73
2023-04-18T08:53:34.059Z,9.63
2023-04-18T08:58:35.723Z,10.43
2023-04-18T09:03:44.514Z,10.63
2023-04-18T09:08:59.053Z,9.90
2023-04-18T09:14:02.552Z,10.80
2023-04-18T09:19:18.595Z,9.60
2023-04-18T09:24:37.981Z,9.53
2023-04-18T09:29:47.167Z,9.20
2023-04-18T09:34:58.455Z,9.67
2023-04-18T09:40:00.249Z,9.43
2023-04-18T09:45:07.131Z,10.53
2023-04-18T09:50:11.756Z,9.97
2023-04-18T09:55:19.009Z,9.90
2023-04-18T10:00:34.616Z,9.73
2023-04-18T10:05:50.709Z,10.30
2023-04-18T10:10:53.666Z,9.07
2023-04-18T10:15:58.671Z,9.50
2023-04-18T10:21:11.478Z,9.97
2023-04-18T10:26:13.184Z,11.03
2023-04-18T10:31:16.644Z,11.53
2023-04-18T10:36:23.868Z,9.30
2023-04-18T10:41:27.622Z,9.63
2023-04-18T10:46:32.298Z,9.03
2023-04-18T10:51:36.958Z,9.60
2023-04-18T10:56:39.524Z,9.63
2023-04-18T11:06:36.011Z,10.10
2023-04-18T11:11:37.601Z,9.93
2023-04-18T11:16:42.953Z,10.13
2023-04-18T11:21:49.414Z,9.43
2023-04-18T11:26:58.398Z,8.63
2023-04-18T11:32:08.160Z,9.50
2023-04-18T11:37:12.330Z,9.27
2023-04-18T11:42:14.088Z,8.80
2023-04-18T11:47:25.888Z,10.00
2023-04-18T11:52:29.172Z,9.43
2023-04-18T11:57:53.732Z,8.70
2023-04-18T12:02:59.384Z,8.53
2023-04-18T12:08:20.347Z,8.80
2023-04-18T12:13:26.866Z,8.27
2023-04-18T12:18:36.009Z,9.40
2023-04-18T12:23:39.792Z,8.50
2023-04-18T12:28:51.315Z,8.33
2023-04-18T12:33:52.913Z,8.77
2023-04-18T12:38:58.989Z,8.37
2023-04-18T12:44:00.689Z,7.77
2023-04-18T12:49:04.692Z,7.97
2023-04-18T12:54:06.512Z,7.63
2023-04-18T12:59:08.164Z,7.53
2023-04-18T13:04:13.028Z,7.70
2023-04-18T13:09:26.927Z,8.43
2023-04-18T13:14:33.535Z,8.07
2023-04-18T13:19:35.324Z,7.80
2023-04-18T13:24:37.205Z,8.43
2023-04-18T13:29:42.335Z,7.93
2023-04-18T13:34:46.950Z,7.40
2023-04-18T13:39:58.776Z,7.63
2023-04-18T13:45:00.442Z,6.53
2023-04-18T13:50:06.437Z,6.20
2023-04-18T13:55:10.638Z,6.23
2023-04-18T14:00:16.503Z,6.00
2023-04-18T14:05:18.180Z,5.80
2023-04-18T14:10:22.784Z,5.50
2023-04-18T14:15:26.760Z,5.77
2023-04-18T14:20:34.787Z,5.30
2023-04-18T14:25:39.471Z,5.20
2023-04-18T14:30:44.310Z,5.13
2023-04-18T14:35:46.014Z,5.70
2023-04-18T14:40:49.160Z,5.27
2023-04-18T14:45:50.909Z,4.63
2023-04-18T14:51:09.426Z,4.93
2023-04-18T14:56:11.135Z,4.97
2023-04-18T15:01:20.206Z,4.90
2023-04-18T15:06:23.164Z,4.57
2023-04-18T15:11:27.058Z,4.70
2023-04-18T15:16:28.749Z,4.80
2023-04-18T15:21:30.496Z,4.93
2023-04-18T15:26:33.249Z,4.97
2023-04-18T15:31:36.689Z,4.20
2023-04-18T15:36:49.945Z,5.20
2023-04-18T15:42:00.174Z,4.80
2023-04-18T15:47:01.978Z,4.17
2023-04-18T15:52:23.933Z,4.60
2023-04-18T15:57:36.254Z,4.73
2023-04-18T16:02:38.019Z,4.20
2023-04-18T16:07:41.798Z,3.90
2023-04-18T16:12:43.614Z,4.20
2023-04-18T16:17:45.649Z,4.30
2023-04-18T16:22:48.763Z,3.90
2023-04-18T16:27:55.236Z,4.20
2023-04-18T16:32:57.001Z,4.60
2023-04-18T16:37:58.762Z,4.43
2023-04-18T16:43:28.473Z,3.80
2023-04-18T16:48:31.526Z,3.90
2023-04-18T16:53:47.258Z,4.50
2023-04-18T16:58:51.750Z,4.00
2023-04-18T17:03:53.484Z,3.97
2023-04-18T17:08:55.217Z,4.50
2023-04-18T17:13:56.919Z,4.10
2023-04-18T17:18:58.564Z,4.20
2023-04-18T17:24:03.579Z,4.33
2023-04-18T17:29:07.455Z,4.10
2023-04-18T17:34:18.255Z,4.17
2023-04-18T17:39:27.177Z,4.63
2023-04-18T17:44:29.049Z,4.17
2023-04-18T17:49:34.526Z,4.30
2023-04-18T17:54:36.396Z,4.47
2023-04-18T17:59:38.139Z,4.50
2023-04-18T18:04:42.934Z,4.73
2023-04-18T18:09:45.591Z,5.23
2023-04-18T18:14:54.074Z,4.93
2023-04-18T18:20:04.083Z,5.30
2023-04-18T18:25:09.167Z,5.20
2023-04-18T18:30:11.211Z,4.80
2023-04-18T18:35:13.028Z,5.30
2023-04-18T18:40:27.880Z,5.37
2023-04-18T18:45:29.574Z,5.47
2023-04-18T18:50:44.730Z,4.33
2023-04-18T18:55:46.424Z,5.00
2023-04-18T19:00:51.207Z,4.97
2023-04-18T19:05:52.875Z,5.13
2023-04-18T19:10:58.107Z,5.07
2023-04-18T19:16:05.060Z,4.60
2023-04-18T19:21:09.162Z,4.83
2023-04-18T19:26:14.078Z,5.00
2023-04-18T19:31:15.770Z,5.07
2023-04-18T19:36:19.622Z,5.30
2023-04-18T19:41:38.962Z,5.50
2023-04-18T19:46:45.717Z,5.07
2023-04-18T19:51:47.425Z,5.50
2023-04-18T19:56:53.710Z,5.20
2023-04-18T20:02:03.335Z,5.90
2023-04-18T20:07:16.668Z,6.13
2023-04-18T20:12:18.551Z,5.73
2023-04-18T20:17:30.494Z,6.43
2023-04-18T20:22:34.288Z,6.53
2023-04-18T20:27:38.199Z,6.60
2023-04-18T20:32:48.213Z,6.20
2023-04-18T20:37:49.964Z,6.20
2023-04-18T20:42:59.663Z,6.70
2023-04-18T20:48:08.675Z,6.90
2023-04-18T20:53:10.447Z,7.40
2023-04-18T20:58:12.215Z,7.77
2023-04-18T21:03:16.860Z,7.70
2023-04-18T21:08:21.566Z,7.97
2023-04-18T21:18:45.667Z,8.83
2023-04-18T21:23:51.082Z,8.10
2023-04-18T21:28:55.692Z,8.20
2023-04-18T21:34:11.227Z,8.47
2023-04-18T21:39:15.565Z,8.67
2023-04-18T21:44:21.672Z,8.80
2023-04-18T21:49:23.333Z,8.97
2023-04-18T21:54:25.116Z,9.23
2023-04-18T22:04:50.220Z,8.57
2023-04-18T22:09:54.565Z,8.93
2023-04-18T22:14:56.735Z,9.00
2023-04-18T22:19:59.677Z,9.40
2023-04-18T22:25:02.453Z,10.07
2023-04-18T22:30:09.767Z,9.00
2023-04-18T22:35:11.429Z,9.57
2023-04-18T22:40:13.654Z,10.13
2023-04-18T22:45:17.880Z,8.53
2023-04-18T22:50:22.833Z,9.57
2023-04-18T22:55:24.645Z,9.07
2023-04-18T23:00:33.059Z,10.23
2023-04-18T23:11:10.736Z,10.00
2023-04-18T23:16:14.926Z,9.30
2023-04-18T23:21:27.233Z,9.10
2023-04-18T23:26:44.467Z,9.20
2023-04-18T23:31:53.257Z,9.70
2023-04-18T23:36:56.491Z,10.07
2023-04-18T23:41:58.148Z,10.13
2023-04-18T23:47:07.372Z,10.50
2023-04-18T23:52:20.625Z,9.47
2023-04-18T23:57:30.029Z,10.07
